sensor_id;sensor_type;location;lat;lon;timestamp;pressure;altitude;pressure_sealevel;temperature;humidity
44734;BME280;30462;52.446;-1.930;2024-03-08T00:00:15;100156.3984;;;;
44734;BME280;30462;52.446;-1.930;2024-03-08T00:01:14;100154.2617;;;;
44734;BME280;30462;52.446;-1.930;2024-03-08T00:02:14;100157.6094;;;;
44734;BME280;30462;52.446;-1.930;2024-03-08T00:03:14;100153.2891;;;;
44734;BME280;30462;52.446;-1.930;2024-03-08T00:04:14;100152.5586;;;;
44734;BME280;30462;52.446;-1.930;2024-03-08T00:05:14;100150.9219;;;;
44734;BME280;30462;52.446;-1.930;2024-03-08T00:06:14;100148.6094;;;;
44734;BME280;30462;52.446;-1.930;2024-03-08T00:07:14;100148.7461;;;;
44734;BME280;30462;52.446;-1.930;2024-03-08T00:08:14;100144.918;;;;
44734;BME280;30462;52.446;-1.930;2024-03-08T00:09:14;100143.7813;;;;
44734;BME280;30462;52.446;-1.930;2024-03-08T00:10:14;100143.1914;;;;
44734;BME280;30462;52.446;-1.930;2024-03-08T00:11:14;100141.1836;;;;
44734;BME280;30462;52.446;-1.930;2024-03-08T00:12:13;100141.7891;;;;
44734;BME280;30462;52.446;-1.930;2024-03-08T00:13:14;100131.7461;;;;
44734;BME280;30462;52.446;-1.930;2024-03-08T00:14:14;100134.3125;;;;
44734;BME280;30462;52.446;-1.930;2024-03-08T00:15:15;100137.0195;;;;
44734;BME280;30462;52.446;-1.930;2024-03-08T00:16:14;100131.457;;;;
44734;BME280;30462;52.446;-1.930;2024-03-08T00:17:13;100133.3516;;;;
44734;BME280;30462;52.446;-1.930;2024-03-08T00:18:13;100132.9453;;;;
44734;BME280;30462;52.446;-1.930;2024-03-08T00:19:14;100124.9922;;;;
44734;BME280;30462;52.446;-1.930;2024-03-08T00:20:14;100129.7305;;;;
44734;BME280;30462;52.446;-1.930;2024-03-08T00:21:14;100130.0078;;;;
44734;BME280;30462;52.446;-1.930;2024-03-08T00:22:14;100129.7422;;;;
44734;BME280;30462;52.446;-1.930;2024-03-08T00:23:14;100130.6016;;;;
44734;BME280;30462;52.446;-1.930;2024-03-08T00:24:14;100127.5391;;;;
44734;BME280;30462;52.446;-1.930;2024-03-08T00:25:13;100129.9766;;;;
44734;BME280;30462;52.446;-1.930;2024-03-08T00:26:14;100126.043;;;;
44734;BME280;30462;52.446;-1.930;2024-03-08T00:27:13;100127.8516;;;;
44734;BME280;30462;52.446;-1.930;2024-03-08T00:28:15;100124.3359;;;;
44734;BME280;30462;52.446;-1.930;2024-03-08T00:29:14;100125.4453;;;;
44734;BME280;30462;52.446;-1.930;2024-03-08T00:30:14;100123.7266;;;;
44734;BME280;30462;52.446;-1.930;2024-03-08T00:31:14;100122.8086;;;;
44734;BME280;30462;52.446;-1.930;2024-03-08T00:32:14;100127.6133;;;;
44734;BME280;30462;52.446;-1.930;2024-03-08T00:33:14;100128.5117;;;;
44734;BME280;30462;52.446;-1.930;2024-03-08T00:34:14;100123.125;;;;
44734;BME280;30462;52.446;-1.930;2024-03-08T00:35:14;100125.2383;;;;
44734;BME280;30462;52.446;-1.930;2024-03-08T00:36:14;100124.1133;;;;
44734;BME280;30462;52.446;-1.930;2024-03-08T00:37:13;100120.5273;;;;
44734;BME280;30462;52.446;-1.930;2024-03-08T00:38:14;100118.5195;;;;
44734;BME280;30462;52.446;-1.930;2024-03-08T00:39:14;100119.9219;;;;
44734;BME280;30462;52.446;-1.930;2024-03-08T00:40:15;100115.6055;;;;
44734;BME280;30462;52.446;-1.930;2024-03-08T00:41:14;100110.9141;;;;
44734;BME280;30462;52.446;-1.930;2024-03-08T00:42:14;100113.6055;;;;
44734;BME280;30462;52.446;-1.930;2024-03-08T00:43:14;100112.2305;;;;
44734;BME280;30462;52.446;-1.930;2024-03-08T00:44:14;100110.6406;;;;
44734;BME280;30462;52.446;-1.930;2024-03-08T00:45:14;100114.543;;;;
44734;BME280;30462;52.446;-1.930;2024-03-08T00:46:13;100111.5039;;;;
44734;BME280;30462;52.446;-1.930;2024-03-08T00:47:14;100109.082;;;;
44734;BME280;30462;52.446;-1.930;2024-03-08T00:48:14;100111.1758;;;;
44734;BME280;30462;52.446;-1.930;2024-03-08T00:49:14;100109.1602;;;;
44734;BME280;30462;52.446;-1.930;2024-03-08T00:50:14;100112.2969;;;;
44734;BME280;30462;52.446;-1.930;2024-03-08T00:51:14;100105.2539;;;;
44734;BME280;30462;52.446;-1.930;2024-03-08T00:52:14;100109.2773;;;;
44734;BME280;30462;52.446;-1.930;2024-03-08T00:53:14;100102.3008;;;;
44734;BME280;30462;52.446;-1.930;2024-03-08T00:54:13;100099.668;;;;
44734;BME280;30462;52.446;-1.930;2024-03-08T00:55:14;100097.6719;;;;
44734;BME280;30462;52.446;-1.930;2024-03-08T00:56:14;100092.6836;;;;
44734;BME280;30462;52.446;-1.930;2024-03-08T00:57:14;100095.5078;;;;
44734;BME280;30462;52.446;-1.930;2024-03-08T00:58:14;100097.457;;;;
44734;BME280;30462;52.446;-1.930;2024-03-08T00:59:14;100093.0273;;;;
44734;BME280;30462;52.446;-1.930;2024-03-08T01:00:14;100093.5703;;;;
44734;BME280;30462;52.446;-1.930;2024-03-08T01:01:14;100090.3125;;;;
44734;BME280;30462;52.446;-1.930;2024-03-08T01:02:13;100090.9727;;;;
44734;BME280;30462;52.446;-1.930;2024-03-08T01:03:14;100087.7695;;;;
44734;BME280;30462;52.446;-1.930;2024-03-08T01:04:14;100090.9023;;;;
44734;BME280;30462;52.446;-1.930;2024-03-08T01:05:14;100089.6523;;;;
44734;BME280;30462;52.446;-1.930;2024-03-08T01:06:13;100084.4961;;;;
44734;BME280;30462;52.446;-1.930;2024-03-08T01:07:14;100086.8594;;;;
44734;BME280;30462;52.446;-1.930;2024-03-08T01:08:14;100080.3203;;;;
44734;BME280;30462;52.446;-1.930;2024-03-08T01:09:14;100083.4102;;;;
44734;BME280;30462;52.446;-1.930;2024-03-08T01:10:14;100076.332;;;;
44734;BME280;30462;52.446;-1.930;2024-03-08T01:11:14;100081.8555;;;;
44734;BME280;30462;52.446;-1.930;2024-03-08T01:12:14;100079.9258;;;;
44734;BME280;30462;52.446;-1.930;2024-03-08T01:13:14;100078.1367;;;;
44734;BME280;30462;52.446;-1.930;2024-03-08T01:14:14;100077.4219;;;;
44734;BME280;30462;52.446;-1.930;2024-03-08T01:15:14;100074.4492;;;;
44734;BME280;30462;52.446;-1.930;2024-03-08T01:16:15;100072.1523;;;;
44734;BME280;30462;52.446;-1.930;2024-03-08T01:17:14;100069.418;;;;
44734;BME280;30462;52.446;-1.930;2024-03-08T01:18:14;100067.1172;;;;
44734;BME280;30462;52.446;-1.930;2024-03-08T01:19:13;100067.5234;;;;
44734;BME280;30462;52.446;-1.930;2024-03-08T01:20:14;100058.6484;;;;
44734;BME280;30462;52.446;-1.930;2024-03-08T01:21:14;100060.8398;;;;
44734;BME280;30462;52.446;-1.930;2024-03-08T01:22:14;100062.9961;;;;
44734;BME280;30462;52.446;-1.930;2024-03-08T01:23:13;100059.4688;;;;
44734;BME280;30462;52.446;-1.930;2024-03-08T01:24:13;100055.3203;;;;
44734;BME280;30462;52.446;-1.930;2024-03-08T01:25:14;100055.5273;;;;
44734;BME280;30462;52.446;-1.930;2024-03-08T01:26:14;100055.7266;;;;
44734;BME280;30462;52.446;-1.930;2024-03-08T01:27:14;100055.5039;;;;
44734;BME280;30462;52.446;-1.930;2024-03-08T01:28:14;100046.8594;;;;
44734;BME280;30462;52.446;-1.930;2024-03-08T01:29:14;100050.375;;;;
44734;BME280;30462;52.446;-1.930;2024-03-08T01:30:14;100047.3945;;;;
44734;BME280;30462;52.446;-1.930;2024-03-08T01:31:14;100052.5273;;;;
44734;BME280;30462;52.446;-1.930;2024-03-08T01:32:14;100051.1563;;;;
44734;BME280;30462;52.446;-1.930;2024-03-08T01:33:14;100046.1602;;;;
44734;BME280;30462;52.446;-1.930;2024-03-08T01:34:13;100044.3672;;;;
44734;BME280;30462;52.446;-1.930;2024-03-08T01:35:14;100044.418;;;;
44734;BME280;30462;52.446;-1.930;2024-03-08T01:36:14;100040.8984;;;;
44734;BME280;30462;52.446;-1.930;2024-03-08T01:37:14;100041.7148;;;;
44734;BME280;30462;52.446;-1.930;2024-03-08T01:38:14;100034.9727;;;;
44734;BME280;30462;52.446;-1.930;2024-03-08T01:39:13;100040.0586;;;;
44734;BME280;30462;52.446;-1.930;2024-03-08T01:40:14;100036.8789;;;;
44734;BME280;30462;52.446;-1.930;2024-03-08T01:41:14;100039.5039;;;;
44734;BME280;30462;52.446;-1.930;2024-03-08T01:42:14;100034.6055;;;;
44734;BME280;30462;52.446;-1.930;2024-03-08T01:43:18;100037.3438;;;;
44734;BME280;30462;52.446;-1.930;2024-03-08T01:44:13;100035.5781;;;;
44734;BME280;30462;52.446;-1.930;2024-03-08T01:45:14;100033.8594;;;;
44734;BME280;30462;52.446;-1.930;2024-03-08T01:46:15;100034.6758;;;;
44734;BME280;30462;52.446;-1.930;2024-03-08T01:47:14;100032.4023;;;;
44734;BME280;30462;52.446;-1.930;2024-03-08T01:48:14;100031.7227;;;;
44734;BME280;30462;52.446;-1.930;2024-03-08T01:49:14;100027.6641;;;;
44734;BME280;30462;52.446;-1.930;2024-03-08T01:50:14;100026.8516;;;;
44734;BME280;30462;52.446;-1.930;2024-03-08T01:51:14;100021.4375;;;;
44734;BME280;30462;52.446;-1.930;2024-03-08T01:52:13;100026.7383;;;;
44734;BME280;30462;52.446;-1.930;2024-03-08T01:53:14;100026.2734;;;;
44734;BME280;30462;52.446;-1.930;2024-03-08T01:54:15;100023.2773;;;;
44734;BME280;30462;52.446;-1.930;2024-03-08T01:55:13;100026.4102;;;;
44734;BME280;30462;52.446;-1.930;2024-03-08T01:56:14;100022.3945;;;;
44734;BME280;30462;52.446;-1.930;2024-03-08T01:57:14;100021.8281;;;;
44734;BME280;30462;52.446;-1.930;2024-03-08T01:58:14;100018.7656;;;;
44734;BME280;30462;52.446;-1.930;2024-03-08T01:59:14;100023.3359;;;;
44734;BME280;30462;52.446;-1.930;2024-03-08T02:00:14;100021.7891;;;;
44734;BME280;30462;52.446;-1.930;2024-03-08T02:01:14;100016.6055;;;;
44734;BME280;30462;52.446;-1.930;2024-03-08T02:02:14;100018.5625;;;;
44734;BME280;30462;52.446;-1.930;2024-03-08T02:03:14;100013.9453;;;;
44734;BME280;30462;52.446;-1.930;2024-03-08T02:04:14;100014.4258;;;;
44734;BME280;30462;52.446;-1.930;2024-03-08T02:05:14;100008.9219;;;;
44734;BME280;30462;52.446;-1.930;2024-03-08T02:06:14;100015.3789;;;;
44734;BME280;30462;52.446;-1.930;2024-03-08T02:07:14;100005.043;;;;
44734;BME280;30462;52.446;-1.930;2024-03-08T02:08:14;100006.6875;;;;
44734;BME280;30462;52.446;-1.930;2024-03-08T02:09:14;100003.3203;;;;
44734;BME280;30462;52.446;-1.930;2024-03-08T02:10:14;100002.5352;;;;
44734;BME280;30462;52.446;-1.930;2024-03-08T02:11:14;99997.72656;;;;
44734;BME280;30462;52.446;-1.930;2024-03-08T02:12:14;99992.85156;;;;
44734;BME280;30462;52.446;-1.930;2024-03-08T02:13:14;99991.64063;;;;
44734;BME280;30462;52.446;-1.930;2024-03-08T02:14:14;99994.85547;;;;
44734;BME280;30462;52.446;-1.930;2024-03-08T02:15:14;99988.21094;;;;
44734;BME280;30462;52.446;-1.930;2024-03-08T02:16:19;99985.8125;;;;
44734;BME280;30462;52.446;-1.930;2024-03-08T02:17:14;99980.41797;;;;
44734;BME280;30462;52.446;-1.930;2024-03-08T02:18:14;99984.45703;;;;
44734;BME280;30462;52.446;-1.930;2024-03-08T02:19:14;99986.87891;;;;
44734;BME280;30462;52.446;-1.930;2024-03-08T02:20:13;99985.10547;;;;
44734;BME280;30462;52.446;-1.930;2024-03-08T02:21:14;99981.43359;;;;
44734;BME280;30462;52.446;-1.930;2024-03-08T02:22:13;99985.54297;;;;
44734;BME280;30462;52.446;-1.930;2024-03-08T02:23:14;99983.33594;;;;
44734;BME280;30462;52.446;-1.930;2024-03-08T02:24:14;99980.46094;;;;
44734;BME280;30462;52.446;-1.930;2024-03-08T02:25:13;99978.62109;;;;
44734;BME280;30462;52.446;-1.930;2024-03-08T02:26:14;99974.48828;;;;
44734;BME280;30462;52.446;-1.930;2024-03-08T02:27:15;99974.47656;;;;
44734;BME280;30462;52.446;-1.930;2024-03-08T02:28:13;99972.12109;;;;
44734;BME280;30462;52.446;-1.930;2024-03-08T02:29:14;99970.86328;;;;
44734;BME280;30462;52.446;-1.930;2024-03-08T02:30:14;99965.33203;;;;
44734;BME280;30462;52.446;-1.930;2024-03-08T02:31:14;99965.94531;;;;
44734;BME280;30462;52.446;-1.930;2024-03-08T02:32:14;99959.625;;;;
44734;BME280;30462;52.446;-1.930;2024-03-08T02:33:14;99964.63672;;;;
44734;BME280;30462;52.446;-1.930;2024-03-08T02:34:18;99964.15625;;;;
44734;BME280;30462;52.446;-1.930;2024-03-08T02:35:14;99958.81641;;;;
44734;BME280;30462;52.446;-1.930;2024-03-08T02:36:14;99958.87891;;;;
44734;BME280;30462;52.446;-1.930;2024-03-08T02:37:13;99956.91406;;;;
44734;BME280;30462;52.446;-1.930;2024-03-08T02:38:15;99953.77344;;;;
44734;BME280;30462;52.446;-1.930;2024-03-08T02:39:14;99946.45313;;;;
44734;BME280;30462;52.446;-1.930;2024-03-08T02:40:14;99947.78125;;;;
44734;BME280;30462;52.446;-1.930;2024-03-08T02:41:14;99947.83203;;;;
44734;BME280;30462;52.446;-1.930;2024-03-08T02:42:14;99939.76953;;;;
44734;BME280;30462;52.446;-1.930;2024-03-08T02:43:14;99944.13672;;;;
44734;BME280;30462;52.446;-1.930;2024-03-08T02:44:14;99940.94531;;;;
44734;BME280;30462;52.446;-1.930;2024-03-08T02:45:14;99941.0625;;;;
44734;BME280;30462;52.446;-1.930;2024-03-08T02:46:13;99938.05469;;;;
44734;BME280;30462;52.446;-1.930;2024-03-08T02:47:14;99935.93359;;;;
44734;BME280;30462;52.446;-1.930;2024-03-08T02:48:14;99930.79297;;;;
44734;BME280;30462;52.446;-1.930;2024-03-08T02:49:14;99929.10547;;;;
44734;BME280;30462;52.446;-1.930;2024-03-08T02:50:14;99929.37109;;;;
44734;BME280;30462;52.446;-1.930;2024-03-08T02:51:14;99930.51953;;;;
44734;BME280;30462;52.446;-1.930;2024-03-08T02:52:14;99928.75;;;;
44734;BME280;30462;52.446;-1.930;2024-03-08T02:53:14;99930.94922;;;;
44734;BME280;30462;52.446;-1.930;2024-03-08T02:54:14;99929.98047;;;;
44734;BME280;30462;52.446;-1.930;2024-03-08T02:55:14;99921.76953;;;;
44734;BME280;30462;52.446;-1.930;2024-03-08T02:56:14;99929.70313;;;;
44734;BME280;30462;52.446;-1.930;2024-03-08T02:57:14;99925.625;;;;
44734;BME280;30462;52.446;-1.930;2024-03-08T02:58:14;99922.3125;;;;
44734;BME280;30462;52.446;-1.930;2024-03-08T02:59:14;99919.62109;;;;
44734;BME280;30462;52.446;-1.930;2024-03-08T03:00:14;99922.32813;;;;
44734;BME280;30462;52.446;-1.930;2024-03-08T03:01:14;99916.76172;;;;
44734;BME280;30462;52.446;-1.930;2024-03-08T03:02:14;99920.01953;;;;
44734;BME280;30462;52.446;-1.930;2024-03-08T03:03:14;99918.98438;;;;
44734;BME280;30462;52.446;-1.930;2024-03-08T03:04:14;99917.44531;;;;
44734;BME280;30462;52.446;-1.930;2024-03-08T03:05:14;99916.08984;;;;
44734;BME280;30462;52.446;-1.930;2024-03-08T03:06:14;99913.93359;;;;
44734;BME280;30462;52.446;-1.930;2024-03-08T03:07:14;99908.64844;;;;
44734;BME280;30462;52.446;-1.930;2024-03-08T03:08:13;99912.62891;;;;
44734;BME280;30462;52.446;-1.930;2024-03-08T03:09:13;99907.79297;;;;
44734;BME280;30462;52.446;-1.930;2024-03-08T03:10:15;99903.0625;;;;
44734;BME280;30462;52.446;-1.930;2024-03-08T03:11:14;99903.85938;;;;
44734;BME280;30462;52.446;-1.930;2024-03-08T03:12:14;99899.02344;;;;
44734;BME280;30462;52.446;-1.930;2024-03-08T03:13:13;99891.01563;;;;
44734;BME280;30462;52.446;-1.930;2024-03-08T03:14:13;99896.19531;;;;
44734;BME280;30462;52.446;-1.930;2024-03-08T03:15:14;99893.37109;;;;
44734;BME280;30462;52.446;-1.930;2024-03-08T03:17:14;99886.81641;;;;
44734;BME280;30462;52.446;-1.930;2024-03-08T03:18:14;99881.80469;;;;
44734;BME280;30462;52.446;-1.930;2024-03-08T03:19:13;99882.23438;;;;
44734;BME280;30462;52.446;-1.930;2024-03-08T03:20:14;99888.05859;;;;
44734;BME280;30462;52.446;-1.930;2024-03-08T03:21:14;99887.40625;;;;
44734;BME280;30462;52.446;-1.930;2024-03-08T03:22:14;99887.36719;;;;
44734;BME280;30462;52.446;-1.930;2024-03-08T03:23:14;99884.16406;;;;
44734;BME280;30462;52.446;-1.930;2024-03-08T03:24:14;99881.20703;;;;
44734;BME280;30462;52.446;-1.930;2024-03-08T03:25:14;99874.13672;;;;
44734;BME280;30462;52.446;-1.930;2024-03-08T03:26:13;99878.71875;;;;
44734;BME280;30462;52.446;-1.930;2024-03-08T03:27:13;99874.57031;;;;
44734;BME280;30462;52.446;-1.930;2024-03-08T03:28:14;99875.20313;;;;
44734;BME280;30462;52.446;-1.930;2024-03-08T03:29:14;99872.27344;;;;
44734;BME280;30462;52.446;-1.930;2024-03-08T03:30:14;99870.57031;;;;
44734;BME280;30462;52.446;-1.930;2024-03-08T03:31:14;99869.48828;;;;
44734;BME280;30462;52.446;-1.930;2024-03-08T03:32:14;99867.86719;;;;
44734;BME280;30462;52.446;-1.930;2024-03-08T03:33:14;99864.36719;;;;
44734;BME280;30462;52.446;-1.930;2024-03-08T03:34:14;99861.64844;;;;
44734;BME280;30462;52.446;-1.930;2024-03-08T03:35:14;99862.16406;;;;
44734;BME280;30462;52.446;-1.930;2024-03-08T03:36:13;99862.61328;;;;
44734;BME280;30462;52.446;-1.930;2024-03-08T03:37:14;99858.12109;;;;
44734;BME280;30462;52.446;-1.930;2024-03-08T03:38:14;99859.85156;;;;
44734;BME280;30462;52.446;-1.930;2024-03-08T03:39:14;99857.61328;;;;
44734;BME280;30462;52.446;-1.930;2024-03-08T03:40:14;99851.90234;;;;
44734;BME280;30462;52.446;-1.930;2024-03-08T03:41:14;99860.79688;;;;
44734;BME280;30462;52.446;-1.930;2024-03-08T03:42:14;99850.83594;;;;
44734;BME280;30462;52.446;-1.930;2024-03-08T03:43:14;99850.18359;;;;
44734;BME280;30462;52.446;-1.930;2024-03-08T03:44:14;99847.16016;;;;
44734;BME280;30462;52.446;-1.930;2024-03-08T03:45:14;99847.83594;;;;
44734;BME280;30462;52.446;-1.930;2024-03-08T03:46:14;99844.28906;;;;
44734;BME280;30462;52.446;-1.930;2024-03-08T03:47:13;99843.59766;;;;
44734;BME280;30462;52.446;-1.930;2024-03-08T03:48:14;99837.54688;;;;
44734;BME280;30462;52.446;-1.930;2024-03-08T03:49:14;99833.86328;;;;
44734;BME280;30462;52.446;-1.930;2024-03-08T03:50:14;99840.53516;;;;
44734;BME280;30462;52.446;-1.930;2024-03-08T03:51:14;99838;;;;
44734;BME280;30462;52.446;-1.930;2024-03-08T03:52:13;99833.26563;;;;
44734;BME280;30462;52.446;-1.930;2024-03-08T03:53:14;99836.375;;;;
44734;BME280;30462;52.446;-1.930;2024-03-08T03:54:14;99833.75781;;;;
44734;BME280;30462;52.446;-1.930;2024-03-08T03:55:14;99834.0625;;;;
44734;BME280;30462;52.446;-1.930;2024-03-08T03:56:13;99831.125;;;;
44734;BME280;30462;52.446;-1.930;2024-03-08T03:57:14;99825.17578;;;;
44734;BME280;30462;52.446;-1.930;2024-03-08T03:58:14;99826.91797;;;;
44734;BME280;30462;52.446;-1.930;2024-03-08T03:59:14;99826.71484;;;;
44734;BME280;30462;52.446;-1.930;2024-03-08T04:00:14;99828.00391;;;;
44734;BME280;30462;52.446;-1.930;2024-03-08T04:01:14;99821.64453;;;;
44734;BME280;30462;52.446;-1.930;2024-03-08T04:02:14;99820.95313;;;;
44734;BME280;30462;52.446;-1.930;2024-03-08T04:03:14;99820.76172;;;;
44734;BME280;30462;52.446;-1.930;2024-03-08T04:04:14;99820.07813;;;;
44734;BME280;30462;52.446;-1.930;2024-03-08T04:05:14;99821.04688;;;;
44734;BME280;30462;52.446;-1.930;2024-03-08T04:06:14;99818.17969;;;;
44734;BME280;30462;52.446;-1.930;2024-03-08T04:07:14;99818.75391;;;;
44734;BME280;30462;52.446;-1.930;2024-03-08T04:08:14;99812.98438;;;;
44734;BME280;30462;52.446;-1.930;2024-03-08T04:09:14;99815.91797;;;;
44734;BME280;30462;52.446;-1.930;2024-03-08T04:10:14;99810.14063;;;;
44734;BME280;30462;52.446;-1.930;2024-03-08T04:11:14;99808.62109;;;;
44734;BME280;30462;52.446;-1.930;2024-03-08T04:12:13;99806.55469;;;;
44734;BME280;30462;52.446;-1.930;2024-03-08T04:13:14;99809.07813;;;;
44734;BME280;30462;52.446;-1.930;2024-03-08T04:14:14;99807.54688;;;;
44734;BME280;30462;52.446;-1.930;2024-03-08T04:15:14;99805.28906;;;;
44734;BME280;30462;52.446;-1.930;2024-03-08T04:16:14;99807.21484;;;;
44734;BME280;30462;52.446;-1.930;2024-03-08T04:17:14;99805.46094;;;;
44734;BME280;30462;52.446;-1.930;2024-03-08T04:18:14;99806.98828;;;;
44734;BME280;30462;52.446;-1.930;2024-03-08T04:19:14;99806.78516;;;;
44734;BME280;30462;52.446;-1.930;2024-03-08T04:20:14;99812.35547;;;;
44734;BME280;30462;52.446;-1.930;2024-03-08T04:21:14;99806.26953;;;;
44734;BME280;30462;52.446;-1.930;2024-03-08T04:22:14;99807.88281;;;;
44734;BME280;30462;52.446;-1.930;2024-03-08T04:23:14;99805.95313;;;;
44734;BME280;30462;52.446;-1.930;2024-03-08T04:24:14;99800.89844;;;;
44734;BME280;30462;52.446;-1.930;2024-03-08T04:25:13;99800.43359;;;;
44734;BME280;30462;52.446;-1.930;2024-03-08T04:26:13;99802.22656;;;;
44734;BME280;30462;52.446;-1.930;2024-03-08T04:27:14;99801.15625;;;;
44734;BME280;30462;52.446;-1.930;2024-03-08T04:28:14;99799.94531;;;;
44734;BME280;30462;52.446;-1.930;2024-03-08T04:29:14;99803.85547;;;;
44734;BME280;30462;52.446;-1.930;2024-03-08T04:30:14;99800.00391;;;;
44734;BME280;30462;52.446;-1.930;2024-03-08T04:31:14;99806.94531;;;;
44734;BME280;30462;52.446;-1.930;2024-03-08T04:32:13;99800.98438;;;;
44734;BME280;30462;52.446;-1.930;2024-03-08T04:33:14;99799.60156;;;;
44734;BME280;30462;52.446;-1.930;2024-03-08T04:34:14;99796.67578;;;;
44734;BME280;30462;52.446;-1.930;2024-03-08T04:35:14;99801.73438;;;;
44734;BME280;30462;52.446;-1.930;2024-03-08T04:36:14;99800.99219;;;;
44734;BME280;30462;52.446;-1.930;2024-03-08T04:37:14;99798.45703;;;;
44734;BME280;30462;52.446;-1.930;2024-03-08T04:38:14;99797.99219;;;;
44734;BME280;30462;52.446;-1.930;2024-03-08T04:39:14;99794.34766;;;;
44734;BME280;30462;52.446;-1.930;2024-03-08T04:40:14;99793.14063;;;;
44734;BME280;30462;52.446;-1.930;2024-03-08T04:41:14;99795.71875;;;;
44734;BME280;30462;52.446;-1.930;2024-03-08T04:42:14;99795.79688;;;;
44734;BME280;30462;52.446;-1.930;2024-03-08T04:43:13;99798.57813;;;;
44734;BME280;30462;52.446;-1.930;2024-03-08T04:44:14;99801.67578;;;;
44734;BME280;30462;52.446;-1.930;2024-03-08T04:45:14;99794.58203;;;;
44734;BME280;30462;52.446;-1.930;2024-03-08T04:46:14;99793.28516;;;;
44734;BME280;30462;52.446;-1.930;2024-03-08T04:47:14;99792.45313;;;;
44734;BME280;30462;52.446;-1.930;2024-03-08T04:48:14;99794.90625;;;;
44734;BME280;30462;52.446;-1.930;2024-03-08T04:49:14;99793.04688;;;;
44734;BME280;30462;52.446;-1.930;2024-03-08T04:50:14;99794.93359;;;;
44734;BME280;30462;52.446;-1.930;2024-03-08T04:51:14;99793.0625;;;;
44734;BME280;30462;52.446;-1.930;2024-03-08T04:52:14;99791.54688;;;;
44734;BME280;30462;52.446;-1.930;2024-03-08T04:53:14;99795.58984;;;;
44734;BME280;30462;52.446;-1.930;2024-03-08T04:54:13;99790.82031;;;;
44734;BME280;30462;52.446;-1.930;2024-03-08T04:55:14;99794.75;;;;
44734;BME280;30462;52.446;-1.930;2024-03-08T04:56:14;99791.66016;;;;
44734;BME280;30462;52.446;-1.930;2024-03-08T04:57:14;99793.67969;;;;
44734;BME280;30462;52.446;-1.930;2024-03-08T04:58:14;99796.46094;;;;
44734;BME280;30462;52.446;-1.930;2024-03-08T04:59:14;99793.95703;;;;
44734;BME280;30462;52.446;-1.930;2024-03-08T05:00:14;99795.6875;;;;
44734;BME280;30462;52.446;-1.930;2024-03-08T05:01:14;99792.35938;;;;
44734;BME280;30462;52.446;-1.930;2024-03-08T05:02:14;99789.80859;;;;
44734;BME280;30462;52.446;-1.930;2024-03-08T05:03:14;99791.42578;;;;
44734;BME280;30462;52.446;-1.930;2024-03-08T05:04:14;99795.48828;;;;
44734;BME280;30462;52.446;-1.930;2024-03-08T05:05:14;99796.52344;;;;
44734;BME280;30462;52.446;-1.930;2024-03-08T05:06:14;99788.02734;;;;
44734;BME280;30462;52.446;-1.930;2024-03-08T05:07:13;99787.01172;;;;
44734;BME280;30462;52.446;-1.930;2024-03-08T05:08:14;99789.72266;;;;
44734;BME280;30462;52.446;-1.930;2024-03-08T05:09:14;99783.44141;;;;
44734;BME280;30462;52.446;-1.930;2024-03-08T05:10:14;99788.69531;;;;
44734;BME280;30462;52.446;-1.930;2024-03-08T05:11:14;99786.00781;;;;
44734;BME280;30462;52.446;-1.930;2024-03-08T05:12:14;99784.34766;;;;
44734;BME280;30462;52.446;-1.930;2024-03-08T05:13:13;99780.00781;;;;
44734;BME280;30462;52.446;-1.930;2024-03-08T05:14:14;99775.07813;;;;
44734;BME280;30462;52.446;-1.930;2024-03-08T05:15:14;99782.41016;;;;
44734;BME280;30462;52.446;-1.930;2024-03-08T05:16:14;99780.98828;;;;
44734;BME280;30462;52.446;-1.930;2024-03-08T05:17:14;99781.95313;;;;
44734;BME280;30462;52.446;-1.930;2024-03-08T05:18:13;99783.66797;;;;
44734;BME280;30462;52.446;-1.930;2024-03-08T05:19:14;99777.83203;;;;
44734;BME280;30462;52.446;-1.930;2024-03-08T05:20:14;99779.29688;;;;
44734;BME280;30462;52.446;-1.930;2024-03-08T05:21:13;99774.85938;;;;
44734;BME280;30462;52.446;-1.930;2024-03-08T05:22:14;99773.69531;;;;
44734;BME280;30462;52.446;-1.930;2024-03-08T05:23:14;99771.01563;;;;
44734;BME280;30462;52.446;-1.930;2024-03-08T05:24:14;99775.5;;;;
44734;BME280;30462;52.446;-1.930;2024-03-08T05:25:14;99772.16406;;;;
44734;BME280;30462;52.446;-1.930;2024-03-08T05:26:14;99766.64453;;;;
44734;BME280;30462;52.446;-1.930;2024-03-08T05:27:14;99774.41406;;;;
44734;BME280;30462;52.446;-1.930;2024-03-08T05:28:14;99768.82813;;;;
44734;BME280;30462;52.446;-1.930;2024-03-08T05:29:14;99765.64844;;;;
44734;BME280;30462;52.446;-1.930;2024-03-08T05:30:14;99762.27344;;;;
44734;BME280;30462;52.446;-1.930;2024-03-08T05:32:14;99756.71875;;;;
44734;BME280;30462;52.446;-1.930;2024-03-08T05:33:14;99755.30469;;;;
44734;BME280;30462;52.446;-1.930;2024-03-08T05:34:14;99751.26172;;;;
44734;BME280;30462;52.446;-1.930;2024-03-08T05:35:14;99744.42969;;;;
44734;BME280;30462;52.446;-1.930;2024-03-08T05:36:14;99748.99609;;;;
44734;BME280;30462;52.446;-1.930;2024-03-08T05:37:14;99743.66406;;;;
44734;BME280;30462;52.446;-1.930;2024-03-08T05:38:14;99749.35938;;;;
44734;BME280;30462;52.446;-1.930;2024-03-08T05:39:14;99746.59375;;;;
44734;BME280;30462;52.446;-1.930;2024-03-08T05:40:18;99746.70703;;;;
44734;BME280;30462;52.446;-1.930;2024-03-08T05:41:14;99747.55469;;;;
44734;BME280;30462;52.446;-1.930;2024-03-08T05:42:13;99743.07031;;;;
44734;BME280;30462;52.446;-1.930;2024-03-08T05:43:14;99739.87109;;;;
44734;BME280;30462;52.446;-1.930;2024-03-08T05:44:14;99743.125;;;;
44734;BME280;30462;52.446;-1.930;2024-03-08T05:45:14;99739.0625;;;;
44734;BME280;30462;52.446;-1.930;2024-03-08T05:46:15;99744.21875;;;;
44734;BME280;30462;52.446;-1.930;2024-03-08T05:47:14;99736.59766;;;;